Airfield :
LOGIN :

Register | Disclaimer

   EN    FR    IT 

 










Legend :    VFR   Marginal VFR   IFR   Intensive IFR   Very Intensive IFR
Visi :
Ceiling :
>= 8 km
>= 3000ft
5 to 8 km
1000 to 3000 ft
1500m to 5 km
500 to 1000 ft
800 to 1500m
200 to 500 ft
< 800m
< 200 ft
Symbols :   Thunderstorms  Fog  Heavy snow  Heavy precipitations  Wind > 20 kt
SIGMETs :     Misc.  Thunderstorms  Icing  Turbulence  Mountain Waves  Volcanic Ashes






- Airport Elevation : 209 ft
- IATA code : CLY


LFKC - Calvi

CURRENT METAR :
  • 242130Z AUTO 18003KT 9999 -RA BKN062/// OVC072/// ///TCU 10/08 Q1020

EXPIRED METARs :
  • 242100Z AUTO 20004KT 160V230 6000 RA OVC062/// ///CB 10/08 Q1021
  • 242030Z AUTO 17006KT 150V210 9000 -RA FEW027/// OVC060/// ///CB 10/08 Q1021
  • 242000Z AUTO 19012KT 4900 -RA BR FEW013/// SCT035/// BKN045/// ///CB 11/10 Q1021
  • 241930Z AUTO 16005KT 9999 FEW022/// BKN060/// BKN074/// ///CB 10/09 Q1020
  • 241900Z AUTO VRB01KT 9999 FEW056/// BKN070/// BKN100/// ///CB 10/09 Q1020 NOSIG

TAF TAF LFKC
Valid from the 24 at 15:00 until the 25 at 15:00 UTC


241400Z 2415/2515 34008KT 9999 FEW040TCU BKN150 TX15/2512Z TN07/2503Z
TEMPO 2415/2418 SHRA FEW035CB BKN045
BECMG 2422/2424 4000 -RA BKN012
BECMG 2508/2510 9999 NSW FEW030
ATIS : +33 4 95 65 82 49



MET'MAP, your aeronautical weather chart ! - Copyright ORBIFLY December 2007 - Disclaimer

ORBIFLY MET'MAP TEAM :

Programming & Development : Alexandra Zaïnal
Concept & original design : Baudouin d'Aumeries
Assistance for programming : Marc-Olivier Méhu
Technical & hardware support : Manuel Goepfert

Contact : metmap@orbifly.com




SOURCES & CREDITS :

   NOAA